createdAt,value
2022-09-07T00:04:21.754Z,0.30
2022-09-07T00:09:25.479Z,0.30
2022-09-07T00:14:29.247Z,0.40
2022-09-07T00:19:34.326Z,0.30
2022-09-07T00:24:38.198Z,0.33
2022-09-07T00:29:42.034Z,0.47
2022-09-07T00:34:47.264Z,0.30
2022-09-07T00:39:51.810Z,0.40
2022-09-07T00:45:06.483Z,0.40
2022-09-07T00:50:17.307Z,0.20
2022-09-07T00:55:21.887Z,0.23
2022-09-07T01:00:25.684Z,0.30
2022-09-07T01:05:34.562Z,0.23
2022-09-07T01:10:38.503Z,0.20
2022-09-07T01:15:47.938Z,0.30
2022-09-07T01:21:26.856Z,0.30
2022-09-07T01:27:04.999Z,0.33
2022-09-07T01:32:17.287Z,0.30
2022-09-07T01:37:26.266Z,0.60
2022-09-07T01:42:35.810Z,0.47
2022-09-07T01:47:46.518Z,0.40
2022-09-07T01:52:55.131Z,0.50
2022-09-07T01:58:03.400Z,0.50
2022-09-07T02:03:15.109Z,0.40
2022-09-07T02:08:22.941Z,0.40
2022-09-07T02:13:34.965Z,0.50
2022-09-07T02:18:45.643Z,0.50
2022-09-07T02:23:53.105Z,0.40
2022-09-07T02:28:57.586Z,0.40
2022-09-07T02:34:03.057Z,0.40
2022-09-07T02:39:06.884Z,0.40
2022-09-07T02:44:14.623Z,0.20
2022-09-07T02:49:31.006Z,0.30
2022-09-07T02:54:48.168Z,0.30
2022-09-07T03:00:04.105Z,0.27
2022-09-07T03:05:17.677Z,0.20
2022-09-07T03:10:22.478Z,0.40
2022-09-07T03:15:28.749Z,0.23
2022-09-07T03:20:33.826Z,0.20
2022-09-07T03:25:37.574Z,0.30
2022-09-07T03:30:44.220Z,0.20
2022-09-07T03:35:59.800Z,0.30
2022-09-07T03:41:05.841Z,0.30
2022-09-07T03:46:10.520Z,0.30
2022-09-07T03:51:17.345Z,0.40
2022-09-07T03:56:24.273Z,0.30
2022-09-07T04:01:28.988Z,0.20
2022-09-07T04:06:34.272Z,0.30
2022-09-07T04:11:37.983Z,0.20
2022-09-07T04:16:41.870Z,0.20
2022-09-07T04:21:47.524Z,0.30
2022-09-07T04:26:52.118Z,0.30
2022-09-07T04:31:55.882Z,0.40
2022-09-07T04:37:00.934Z,0.40
2022-09-07T04:42:05.075Z,0.27
2022-09-07T04:47:08.868Z,0.30
2022-09-07T04:52:13.941Z,0.40
2022-09-07T04:57:18.233Z,0.33
2022-09-07T05:02:22.060Z,0.40
2022-09-07T05:07:27.666Z,0.40
2022-09-07T05:12:31.392Z,0.40
2022-09-07T05:17:35.361Z,0.40
2022-09-07T05:22:41.110Z,0.40
2022-09-07T05:27:44.864Z,0.47
2022-09-07T05:32:49.413Z,0.30
2022-09-07T05:37:54.688Z,0.37
2022-09-07T05:42:58.426Z,0.40
2022-09-07T05:48:04.398Z,0.40
2022-09-07T05:53:09.539Z,0.50
2022-09-07T05:58:13.521Z,0.40
2022-09-07T06:03:17.410Z,0.33
2022-09-07T06:08:22.630Z,0.37
2022-09-07T06:13:26.931Z,0.47
2022-09-07T06:18:31.516Z,0.90
2022-09-07T06:23:37.690Z,0.60
2022-09-07T06:28:42.801Z,0.63
2022-09-07T06:33:47.645Z,0.70
2022-09-07T06:38:54.324Z,0.70
2022-09-07T06:43:59.037Z,0.93
2022-09-07T06:49:02.799Z,1.00
2022-09-07T06:59:31.895Z,0.70
2022-09-07T07:04:40.487Z,0.70
2022-09-07T07:09:46.034Z,0.60
2022-09-07T07:14:49.869Z,0.70
2022-09-07T07:19:53.743Z,0.40
2022-09-07T07:24:59.246Z,0.50
2022-09-07T07:30:03.193Z,0.60
2022-09-07T07:35:09.168Z,0.60
2022-09-07T07:40:15.440Z,0.60
2022-09-07T07:50:44.422Z,0.50
2022-09-07T07:55:49.584Z,0.50
2022-09-07T08:00:55.225Z,0.43
2022-09-07T08:06:07.973Z,0.40
2022-09-07T08:11:14.759Z,0.50
2022-09-07T08:16:19.291Z,0.60
2022-09-07T08:21:22.961Z,0.80
2022-09-07T08:26:28.329Z,1.10
2022-09-07T08:31:32.035Z,0.80
2022-09-07T08:36:35.674Z,0.70
2022-09-07T08:41:52.666Z,0.60
2022-09-07T08:46:58.984Z,0.60
2022-09-07T08:52:05.907Z,0.50
2022-09-07T08:57:26.792Z,0.60
2022-09-07T09:02:35.158Z,0.50
2022-09-07T09:07:55.646Z,0.67
2022-09-07T09:13:06.073Z,0.50
2022-09-07T09:18:28.898Z,0.60
2022-09-07T09:23:38.237Z,0.60
2022-09-07T09:28:43.336Z,0.60
2022-09-07T09:34:09.078Z,0.63
2022-09-07T09:39:33.686Z,0.70
2022-09-07T09:44:39.472Z,0.40
2022-09-07T09:49:45.610Z,0.80
2022-09-07T09:54:53.748Z,0.70
2022-09-07T10:00:08.519Z,0.80
2022-09-07T10:05:36.982Z,0.50
2022-09-07T10:10:51.913Z,0.60
2022-09-07T10:15:58.405Z,0.40
2022-09-07T10:21:24.013Z,0.57
2022-09-07T10:26:31.728Z,0.80
2022-09-07T10:31:43.277Z,0.60
2022-09-07T10:36:57.077Z,0.73
2022-09-07T10:42:06.251Z,0.90
2022-09-07T10:47:20.190Z,0.90
2022-09-07T10:52:29.379Z,0.87
2022-09-07T10:57:48.768Z,0.70
2022-09-07T11:03:26.083Z,0.63
2022-09-07T11:14:13.538Z,0.60
2022-09-07T11:19:39.235Z,0.60
2022-09-07T11:25:28.702Z,0.60
2022-09-07T11:30:19.897Z,0.50
2022-09-07T11:35:36.669Z,0.50
2022-09-07T11:40:45.759Z,0.43
2022-09-07T11:45:53.745Z,0.57
2022-09-07T11:51:01.819Z,0.50
2022-09-07T11:56:08.476Z,0.40
2022-09-07T12:01:22.954Z,0.40
2022-09-07T12:06:45.308Z,0.40
2022-09-07T12:12:30.142Z,0.40
2022-09-07T12:17:48.053Z,0.30
2022-09-07T12:23:05.131Z,0.40
2022-09-07T12:28:19.941Z,0.40
2022-09-07T12:33:31.902Z,0.40
2022-09-07T12:39:11.495Z,0.30
2022-09-07T12:44:23.989Z,0.50
2022-09-07T12:49:57.506Z,0.30
2022-09-07T12:55:27.537Z,0.37
2022-09-07T13:00:45.945Z,0.40
2022-09-07T13:06:01.620Z,0.30
2022-09-07T13:11:17.967Z,0.40
2022-09-07T13:17:16.093Z,0.40
2022-09-07T13:21:56.465Z,0.30
2022-09-07T13:27:03.777Z,0.30
2022-09-07T13:32:18.729Z,0.37
2022-09-07T13:37:24.731Z,0.40
2022-09-07T13:42:32.900Z,0.50
2022-09-07T13:47:55.857Z,0.50
2022-09-07T13:53:18.926Z,0.30
2022-09-07T13:58:29.089Z,0.30
2022-09-07T14:03:39.842Z,0.50
2022-09-07T14:08:49.342Z,0.30
2022-09-07T14:14:23.940Z,0.30
2022-09-07T14:19:37.868Z,0.40
2022-09-07T14:24:44.368Z,0.50
2022-09-07T14:29:48.099Z,0.33
2022-09-07T14:34:53.339Z,0.30
2022-09-07T14:39:58.688Z,0.40
2022-09-07T14:45:20.207Z,0.40
2022-09-07T14:50:28.507Z,0.40
2022-09-07T14:55:34.363Z,0.47
2022-09-07T15:00:38.661Z,0.30
2022-09-07T15:05:50.160Z,0.40
2022-09-07T15:16:30.944Z,0.40
2022-09-07T15:21:37.720Z,0.40
2022-09-07T15:32:10.895Z,0.30
2022-09-07T15:48:03.308Z,0.20
2022-09-07T15:54:07.376Z,0.50
2022-09-07T15:58:32.273Z,0.30
2022-09-07T16:03:35.991Z,0.30
2022-09-07T16:08:41.260Z,0.30
2022-09-07T16:13:47.024Z,0.50
2022-09-07T16:18:52.067Z,0.40
2022-09-07T16:23:57.432Z,0.27
2022-09-07T16:29:01.657Z,0.40
2022-09-07T16:34:05.372Z,0.30
2022-09-07T16:39:11.561Z,0.40
2022-09-07T16:44:16.250Z,0.30
2022-09-07T16:49:19.842Z,0.40
2022-09-07T16:54:24.801Z,0.40
2022-09-07T16:59:28.528Z,0.40
2022-09-07T17:04:32.144Z,0.20
2022-09-07T17:09:37.183Z,0.20
2022-09-07T17:14:41.215Z,0.30
2022-09-07T17:19:45.220Z,0.30
2022-09-07T17:24:50.242Z,0.27
2022-09-07T17:29:53.940Z,0.20
2022-09-07T17:34:58.031Z,0.40
2022-09-07T17:40:05.844Z,0.30
2022-09-07T17:45:10.642Z,0.30
2022-09-07T17:50:15.317Z,0.20
2022-09-07T17:55:20.241Z,0.30
2022-09-07T18:00:23.754Z,0.33
2022-09-07T18:05:27.297Z,0.30
2022-09-07T18:15:57.015Z,0.33
2022-09-07T18:21:00.571Z,0.30
2022-09-07T18:26:05.554Z,0.30
2022-09-07T18:31:10.911Z,0.30
2022-09-07T18:36:15.202Z,0.30
2022-09-07T18:41:20.296Z,0.20
2022-09-07T18:46:25.867Z,0.30
2022-09-07T18:51:30.305Z,0.40
2022-09-07T18:56:35.414Z,0.30
2022-09-07T19:01:39.118Z,0.40
2022-09-07T19:06:42.771Z,0.40
2022-09-07T19:11:48.277Z,0.40
2022-09-07T19:16:51.858Z,0.40
2022-09-07T19:21:57.525Z,0.30
2022-09-07T19:27:02.501Z,0.30
2022-09-07T19:32:06.907Z,0.30
2022-09-07T19:37:12.104Z,0.40
2022-09-07T19:42:17.049Z,0.40
2022-09-07T19:47:20.637Z,0.33
2022-09-07T19:52:24.224Z,0.30
2022-09-07T19:57:29.332Z,0.30
2022-09-07T20:02:32.925Z,0.40
2022-09-07T20:07:36.505Z,0.40
2022-09-07T20:12:41.447Z,0.40
2022-09-07T20:17:47.298Z,0.50
2022-09-07T20:22:51.238Z,0.50
2022-09-07T20:27:56.294Z,0.50
2022-09-07T20:32:59.872Z,0.40
2022-09-07T20:38:03.350Z,0.40
2022-09-07T20:43:08.246Z,0.30
2022-09-07T20:48:11.788Z,0.30
2022-09-07T20:53:15.534Z,0.40
2022-09-07T20:58:20.409Z,0.37
2022-09-07T21:03:24.220Z,0.37
2022-09-07T21:08:27.744Z,0.43
2022-09-07T21:13:32.716Z,0.30
2022-09-07T21:18:36.565Z,0.40
2022-09-07T21:23:40.197Z,0.40
2022-09-07T21:28:45.145Z,0.43
2022-09-07T21:33:48.722Z,0.40
2022-09-07T21:38:52.400Z,0.40
2022-09-07T21:43:57.854Z,0.40
2022-09-07T21:49:02.030Z,0.30
2022-09-07T21:54:05.785Z,0.40
2022-09-07T21:59:12.447Z,0.50
2022-09-07T22:04:15.986Z,0.43
2022-09-07T22:09:19.722Z,0.30
2022-09-07T22:14:24.635Z,0.40
2022-09-07T22:19:28.194Z,0.40
2022-09-07T22:24:31.839Z,0.40
2022-09-07T22:29:36.814Z,0.40
2022-09-07T22:34:40.357Z,0.37
2022-09-07T22:39:43.948Z,0.30
2022-09-07T22:44:48.970Z,0.40
2022-09-07T22:49:52.822Z,0.40
2022-09-07T22:54:56.372Z,0.30
2022-09-07T23:00:01.287Z,0.40
2022-09-07T23:05:05.635Z,0.30
2022-09-07T23:10:10.402Z,0.30
2022-09-07T23:15:15.520Z,0.30
2022-09-07T23:20:19.932Z,0.30
2022-09-07T23:25:23.386Z,0.40
2022-09-07T23:30:28.244Z,0.40
2022-09-07T23:35:31.812Z,0.40
2022-09-07T23:40:35.690Z,0.40
2022-09-07T23:45:42.279Z,0.40
2022-09-07T23:50:46.534Z,0.40
2022-09-07T23:55:51.534Z,0.50
